Date,TemperatureHighF,TemperatureAvgF,TemperatureLowF,DewpointHighF,DewpointAvgF,DewpointLowF,HumidityHigh,HumidityAvg,HumidityLow,PressureMaxIn,PressureMinIn,WindSpeedMaxMPH,WindSpeedAvgMPH,GustSpeedMaxMPH,PrecipitationSumIn
2013-1-1,32.2,21.6,4.3,28.7,16.6,0.0,91,81,69,30.01,29.78,0,0,0,0.00
2013-1-2,24.7,17.0,5.0,19.7,12.7,2.0,90,83,68,30.19,29.97,0,0,0,0.00
2013-1-3,28.1,20.2,11.1,23.9,16.3,7.0,89,85,76,30.19,29.97,0,0,0,0.00
2013-1-4,34.0,10.3,27.2,24.2,-60.4,-99.9,87,21,54,29.97,29.78,0,-672,0,0.02
2013-1-5,33.1,10.7,31.3,25.0,-59.1,-99.9,74,23,60,30.25,29.96,0,-668,0,0.00
2013-1-6,36.6,11.2,31.8,28.7,-59.5,-99.9,76,23,67,30.07,29.82,0,-680,0,0.02
2013-1-7,29.4,9.2,24.4,23.7,-57.9,-99.9,94,29,76,30.36,30.00,0,-658,0,0.02
2013-1-8,37.3,12.3,26.4,23.9,-55.0,-99.9,78,24,55,30.29,30.11,0,-634,0,0.02
2013-1-9,46.8,14.3,32.5,34.2,-53.2,-99.9,73,24,53,30.27,29.93,0,-637,0,0.02
2013-1-10,38.0,13.9,34.3,28.3,-51.3,-99.9,75,27,65,30.53,30.25,0,-618,0,0.00
2013-1-11,39.3,10.3,36.0,29.2,-65.8,-99.9,76,18,60,30.43,29.90,0,-726,0,0.03
2013-1-12,50.7,15.4,39.6,47.9,-51.5,-99.9,99,32,89,30.02,29.94,0,-664,0,0.00
2013-1-13,56.2,17.3,50.8,53.1,-51.9,-99.9,96,28,84,29.99,29.75,0,-682,0,0.00
2013-1-14,40.1,11.6,31.9,36.0,-58.8,-99.9,85,23,64,30.30,29.70,0,-678,0,0.00
2013-1-15,32.1,9.8,26.4,23.0,-60.3,-99.9,82,24,65,30.35,30.14,0,-668,0,0.00
2013-1-16,31.6,9.5,28.4,29.0,-59.3,-99.9,96,29,90,30.14,29.70,0,-682,0,0.02
2013-1-17,30.9,7.3,20.8,27.4,-62.8,-99.9,90,25,74,30.10,29.82,0,-685,0,0.00
2013-1-18,22.2,7.2,12.1,12.8,-59.4,-99.9,88,23,46,30.38,30.08,0,-623,0,0.00
2013-1-19,47.0,15.9,32.9,26.5,-52.7,-99.9,48,18,42,30.11,29.63,0,-609,0,0.00
2013-1-20,39.5,10.1,23.8,26.8,-60.2,-99.9,68,19,47,30.00,29.40,0,-656,0,0.00
2013-1-21,21.8,5.7,18.6,18.6,-68.4,-99.9,89,21,56,30.00,29.71,0,-722,0,0.00
2013-1-22,11.4,4.4,6.9,-0.9,-56.4,-99.9,64,24,45,30.13,29.77,0,-547,0,0.00
2013-1-23,9.3,1.9,7.0,3.5,-76.7,-99.9,81,16,61,30.17,29.97,0,-767,0,0.00
2013-1-24,11.6,3.3,0.5,4.7,-61.8,-99.9,83,27,60,30.49,29.99,0,-625,0,0.00
2013-1-25,15.1,4.4,7.6,9.6,-62.0,-99.9,86,28,70,30.44,29.93,0,-644,0,0.00
2013-1-26,18.1,5.6,3.9,13.5,-58.1,-99.9,89,30,71,30.34,29.96,2,-615,4,0.03
2013-1-27,24.5,7.6,16.2,16.2,-58.2,-99.9,91,28,68,30.52,30.30,2,-636,5,0.01
2013-1-28,34.0,10.1,24.8,32.7,-57.0,-99.9,95,31,92,30.38,29.80,0,-666,0,0.00
2013-1-29,42.6,8.8,35.5,41.8,-68.7,-99.9,100,22,97,30.02,29.80,0,-775,0,0.00
2013-1-30,57.3,9.7,52.6,53.5,-73.5,-99.9,89,15,86,29.81,29.05,0,-825,0,0.00
2013-1-31,31.5,19.3,19.5,23.3,-14.9,-99.9,88,50,55,29.67,28.94,0,-276,1,0.03
2013-2-1,21.1,19.0,17.0,16.5,11.3,7.6,88,72,58,30.17,29.67,0,0,0,0.00
2013-2-2,19.2,16.3,12.8,14.8,8.9,4.1,87,72,62,30.17,29.96,0,0,0,0.00
2013-2-3,23.6,17.9,11.1,18.7,14.0,8.1,91,85,69,29.96,29.74,0,0,0,0.00
2013-2-4,20.0,18.2,16.5,14.1,10.4,6.0,84,71,58,29.92,29.80,0,0,0,0.00
2013-2-5,28.1,21.6,15.9,21.2,15.8,12.1,89,78,63,29.93,29.80,0,0,0,0.00
2013-2-6,26.6,22.1,10.9,23.8,15.3,4.8,92,75,55,30.35,29.84,0,0,0,0.01
2013-2-7,30.7,21.6,8.8,16.9,11.4,4.9,86,66,52,30.44,30.11,0,0,0,0.00
2013-2-8,33.5,29.9,22.2,30.5,26.0,15.3,98,86,59,30.11,29.72,0,0,0,0.00
2013-2-9,18.0,16.3,14.0,15.3,13.5,11.5,91,89,86,30.40,30.30,0,0,0,0.00
2013-2-10,35.3,22.4,4.5,20.1,11.6,1.0,92,68,34,30.42,30.03,0,0,0,0.14
2013-2-11,40.8,36.1,33.1,36.9,28.8,13.6,92,76,44,30.03,29.56,0,0,0,0.03
2013-2-12,35.3,32.5,30.0,27.7,25.0,22.3,80,74,69,29.92,29.66,0,0,0,0.00
2013-2-13,37.3,31.1,26.0,23.5,22.0,19.2,78,69,55,29.88,29.65,0,0,0,0.00
2013-2-14,39.6,33.2,22.9,32.1,26.0,18.2,92,75,52,29.90,29.72,0,0,0,0.01
2013-2-15,37.8,34.7,26.7,31.8,25.4,18.2,87,69,51,29.98,29.75,0,0,0,0.00
2013-2-16,26.4,22.6,18.4,21.4,14.4,8.5,86,71,56,29.99,29.86,0,0,0,0.00
2013-2-17,18.4,14.2,10.0,10.6,6.3,1.4,84,70,56,30.08,29.81,0,0,0,0.00
2013-2-18,29.7,19.7,11.2,12.5,9.3,6.2,86,66,45,30.26,29.99,0,0,0,0.00
2013-2-19,35.8,32.3,25.0,32.9,23.5,12.0,95,72,48,29.99,29.55,0,0,0,0.06
2013-2-20,25.0,20.7,18.1,16.7,12.8,8.9,92,71,60,30.01,29.72,0,0,0,0.00
2013-2-21,18.8,16.2,12.9,16.0,11.6,8.1,90,82,71,30.39,29.96,0,0,0,0.00
2013-2-22,34.3,25.9,16.2,24.4,19.8,13.8,92,78,60,30.37,30.04,0,0,0,0.00
2013-2-23,36.8,34.2,31.0,35.7,31.4,24.0,98,89,73,30.04,29.80,0,0,0,0.03
2013-2-24,31.0,29.5,28.5,29.9,25.2,22.8,96,84,74,29.99,29.79,0,0,0,0.01
2013-2-25,35.6,30.9,25.8,28.5,26.2,22.2,90,83,71,30.20,29.99,0,0,0,0.01
2013-2-26,40.3,32.9,24.8,31.6,26.2,21.8,94,77,57,30.20,29.81,0,0,0,0.08
2013-2-27,36.3,34.4,32.9,35.4,33.0,31.1,99,95,88,29.83,29.49,0,0,0,0.62
2013-2-28,38.8,33.7,31.3,36.1,32.4,30.5,99,95,80,29.63,29.50,0,0,0,0.28
2013-3-1,31.2,28.6,24.7,30.4,27.1,22.2,98,94,88,29.85,29.62,0,0,0,0.02
2013-3-2,25.3,23.0,21.6,23.6,20.7,19.1,94,91,86,29.86,29.79,0,0,0,0.00
2013-3-3,23.9,21.3,19.5,20.7,17.9,15.4,94,87,79,29.84,29.77,0,0,0,0.00
2013-3-4,27.0,23.9,20.5,21.7,18.6,16.1,87,80,71,29.97,29.82,0,0,0,0.00
2013-3-5,31.9,27.3,23.6,23.8,21.8,19.5,87,80,70,30.02,29.92,0,0,0,0.02
2013-3-6,38.3,34.5,28.2,30.4,26.8,23.0,81,73,62,30.06,29.89,0,0,0,0.00
2013-3-7,36.2,32.7,27.0,27.2,23.5,20.7,87,69,59,30.18,30.05,0,0,0,0.00
2013-3-8,34.6,29.3,25.7,26.3,23.7,19.9,95,80,62,30.34,30.16,0,0,0,0.02
2013-3-9,43.8,32.6,23.8,31.6,25.7,20.1,97,77,49,30.37,30.21,0,0,0,0.00
2013-3-10,55.3,46.6,33.2,27.3,23.7,19.2,63,41,28,30.21,30.01,0,0,0,0.00
2013-3-11,52.3,48.8,45.4,44.7,31.0,22.9,77,51,38,30.02,29.70,0,0,0,0.00
2013-3-12,52.6,41.8,34.6,48.3,38.8,30.4,98,89,77,29.86,29.66,0,0,0,0.22
2013-3-13,38.3,32.7,24.5,30.5,24.6,14.6,93,72,54,29.88,29.75,0,0,0,0.02
2013-3-14,30.1,24.3,17.7,18.8,11.2,5.4,86,59,36,29.98,29.86,0,0,0,0.00
2013-3-15,35.0,29.3,21.4,30.0,21.4,12.2,89,72,56,29.98,29.67,0,0,0,0.00
2013-3-16,29.8,25.3,17.2,23.1,18.3,12.9,84,75,67,29.93,29.77,0,0,0,0.00
2013-3-17,29.1,22.3,14.6,19.4,15.6,11.1,90,76,60,30.30,29.93,0,0,0,0.00
2013-3-18,32.9,23.9,15.9,25.4,15.2,7.4,94,72,37,30.32,29.79,0,0,0,0.00
2013-3-19,40.6,31.7,26.4,33.5,27.3,18.4,96,84,61,29.79,29.61,0,0,0,0.06
2013-3-20,32.2,26.5,21.9,24.7,18.3,11.8,92,72,53,29.79,29.74,0,0,0,0.02
2013-3-21,29.4,23.4,13.8,22.2,14.6,9.2,92,70,45,29.79,29.67,0,0,0,0.00
2013-3-22,29.7,27.0,23.8,25.0,22.9,20.6,94,85,78,29.85,29.67,0,0,0,0.04
2013-3-23,34.9,30.7,28.4,25.6,23.7,21.3,87,75,60,29.94,29.82,0,0,0,0.01
2013-3-24,37.5,31.0,21.6,27.3,22.5,18.9,93,71,53,29.93,29.68,0,0,0,0.00
2013-3-25,40.5,34.6,30.0,28.3,24.4,21.2,83,66,51,29.68,29.49,0,0,0,0.00
2013-3-26,42.1,34.7,30.1,34.1,27.8,21.7,92,77,50,29.87,29.62,0,0,0,0.00
2013-3-27,43.3,35.2,30.6,35.0,29.5,25.5,97,80,55,29.99,29.84,0,0,0,0.05
2013-3-28,41.3,35.7,31.5,36.5,32.0,30.3,98,87,69,30.14,29.96,0,0,0,0.05
2013-3-29,43.8,37.8,32.4,34.5,31.5,27.6,89,78,66,30.14,30.06,0,0,0,0.01
2013-3-30,49.5,38.6,27.3,31.2,26.2,19.5,92,64,32,30.15,30.03,0,0,0,0.00
2013-3-31,51.6,41.3,31.6,41.8,31.7,21.3,98,71,46,30.03,29.60,0,0,0,0.33
2013-4-1,42.2,35.5,25.6,41.3,29.7,16.1,98,81,44,29.90,29.53,0,0,0,0.03
2013-4-2,32.5,27.4,22.9,21.3,16.2,11.7,83,63,44,30.06,29.88,0,0,0,0.00
2013-4-3,33.8,28.8,25.1,19.5,15.5,10.9,74,58,39,30.32,30.04,0,0,0,0.00
2013-4-4,52.6,36.2,21.3,22.7,18.3,15.5,84,51,27,30.32,29.90,0,0,0,0.00
2013-4-5,44.1,36.9,29.4,28.2,21.1,15.3,66,53,39,30.05,29.82,0,0,0,0.00
2013-4-6,45.4,34.7,22.7,21.6,16.1,8.5,87,51,22,30.29,30.05,0,0,0,0.00
2013-4-7,63.9,50.3,41.5,44.4,28.4,14.4,75,44,30,30.07,29.71,0,0,0,0.00
2013-4-8,63.7,50.7,38.9,45.2,36.2,33.5,83,60,37,30.07,29.76,0,0,0,0.00
2013-4-9,64.5,55.4,45.5,49.7,44.7,41.2,94,69,47,30.02,29.73,0,0,0,0.09
2013-4-10,50.7,47.3,41.8,50.2,46.9,41.6,100,99,94,29.93,29.76,0,0,0,0.63
2013-4-11,41.8,37.5,34.7,41.3,35.1,30.7,100,91,78,30.05,29.87,0,0,0,0.02
2013-4-12,46.4,41.1,36.6,44.3,39.2,34.1,97,93,88,29.91,29.55,0,0,0,0.21
2013-4-13,45.8,40.5,36.5,37.2,35.4,31.3,96,82,60,29.89,29.73,0,0,0,0.04
2013-4-14,46.0,38.8,33.5,35.4,29.4,26.3,91,70,49,30.15,29.89,0,0,0,0.03
2013-4-15,66.4,50.6,35.9,46.2,36.7,26.3,71,59,45,30.17,30.04,0,0,0,0.00
2013-4-16,62.6,54.3,45.2,56.8,49.1,37.1,98,83,65,30.15,29.93,0,0,0,0.35
2013-4-17,52.8,43.0,35.6,37.3,34.0,31.7,87,71,48,30.28,30.14,0,0,0,0.00
2013-4-19,48.6,43.9,41.2,47.5,41.5,36.7,96,91,84,29.70,29.49,0,0,0,0.53
2013-4-20,43.1,39.0,31.5,36.5,27.8,19.9,86,65,46,30.34,29.67,0,0,0,0.00
2013-4-21,44.6,35.2,27.8,27.2,23.1,18.9,88,63,40,30.61,30.34,0,0,0,0.00
2013-4-22,56.3,45.0,29.5,30.4,24.1,21.1,79,46,27,30.57,30.34,0,0,0,0.00
2013-4-23,58.1,47.0,34.1,40.7,30.8,22.1,79,55,35,30.35,29.98,0,0,0,0.00
2013-4-24,67.1,52.9,40.6,55.1,45.4,34.6,93,76,55,29.97,29.60,0,0,0,0.20
2013-4-25,55.7,44.8,36.0,35.6,30.7,24.3,82,60,32,30.25,29.90,0,0,0,0.00
2013-4-26,52.9,43.7,35.3,39.7,33.3,28.2,97,70,40,30.42,30.24,0,0,0,0.06
2013-4-27,66.3,50.9,34.4,38.7,32.1,25.2,88,53,27,30.40,30.18,0,0,0,0.00
2013-4-28,68.8,57.6,44.9,46.7,37.6,33.6,89,50,29,30.18,30.00,0,0,0,0.05
2013-4-29,55.7,52.9,49.4,51.0,47.0,39.8,91,81,66,30.05,29.97,0,0,0,0.06
2013-4-30,65.0,57.2,52.9,54.6,51.1,47.7,90,81,66,30.18,30.04,0,0,0,0.00
2013-5-1,74.6,61.8,49.4,48.1,36.0,25.3,81,43,20,30.32,30.18,0,0,0,0.00
2013-5-2,76.0,63.5,49.9,45.0,37.8,29.2,60,40,25,30.36,30.19,0,0,0,0.00
2013-5-3,73.0,62.9,54.1,45.7,41.0,29.9,69,46,30,30.27,30.16,0,0,0,0.00
2013-5-4,72.7,60.3,47.0,45.0,37.7,32.3,68,44,27,30.23,30.08,0,0,0,0.00
2013-5-5,74.7,62.6,50.7,45.2,36.5,-99.9,65,42,22,30.15,30.00,0,-12,0,0.00
2013-5-6,74.6,59.0,44.9,47.3,31.2,-99.9,71,41,20,30.12,29.96,0,-43,0,0.00
2013-5-7,76.8,65.8,52.5,53.9,48.4,41.4,89,57,29,30.05,29.93,0,0,0,0.00
2013-5-8,67.3,61.4,55.1,59.0,55.2,48.6,96,81,59,29.98,29.84,0,0,0,0.02
2013-5-9,55.1,17.0,49.6,52.0,-51.0,-99.9,98,31,88,29.88,29.82,0,-674,0,0.00
2013-5-10,66.8,11.4,59.3,59.3,-71.1,-99.9,96,15,62,29.90,29.69,5,-816,15,0.27
2013-5-11,60.7,51.7,51.7,59.0,37.6,-99.9,98,77,71,29.69,29.60,7,-101,16,0.14
2013-5-12,52.3,47.0,37.2,47.5,34.1,23.0,90,63,33,29.87,29.63,9,3,24,0.01
2013-5-13,46.8,40.8,35.2,32.1,28.2,26.0,80,61,46,30.08,29.86,5,2,21,0.00
2013-5-14,55.7,22.9,30.3,33.8,-27.3,-99.9,93,38,34,30.10,29.93,1,-440,10,0.00
2013-5-15,79.4,58.8,42.1,55.8,43.6,27.8,85,58,39,29.96,29.48,14,4,28,0.02
2013-5-16,75.8,63.3,52.5,47.9,41.2,34.0,76,48,24,29.88,29.65,9,3,23,0.00
2013-5-17,63.4,53.1,41.2,43.5,39.3,32.0,88,62,32,30.17,29.88,4,1,17,0.00
2013-5-18,68.4,35.0,41.6,50.9,-10.4,-99.9,91,42,44,30.21,30.08,4,-384,13,0.00
2013-5-19,66.6,60.3,55.1,59.3,55.6,50.9,90,85,77,30.13,30.00,9,2,19,0.00
2013-5-20,83.0,70.5,59.9,65.3,60.6,57.3,93,73,43,30.02,29.80,3,0,15,0.00
2013-5-21,87.0,65.2,64.8,68.9,43.0,-99.9,98,63,41,29.85,29.63,8,-131,22,0.74
2013-5-22,85.7,70.1,62.9,70.2,65.3,60.1,100,86,47,29.75,29.61,12,2,33,0.18
2013-5-23,75.1,66.7,52.0,65.1,61.2,51.5,98,83,68,29.70,29.63,10,2,21,0.05
2013-5-24,51.7,41.9,38.5,51.4,40.6,36.9,99,95,87,30.09,29.70,9,4,26,0.06
2013-5-25,52.9,46.1,38.9,39.9,36.4,33.2,89,70,48,30.09,30.04,10,4,23,0.00
2013-5-26,58.7,50.1,41.1,39.0,35.5,28.6,89,60,32,30.14,30.00,9,3,22,0.00
2013-5-27,67.8,54.4,39.2,41.2,36.3,28.7,89,54,28,30.21,30.08,4,1,15,0.00
2013-5-28,58.3,55.4,49.9,56.9,49.1,35.2,99,81,49,30.12,29.94,8,1,17,0.30
2013-5-29,81.6,69.6,57.3,69.6,64.3,56.9,99,85,59,29.95,29.84,8,2,16,0.24
2013-5-30,86.3,75.0,64.8,68.5,65.0,61.6,96,74,45,30.04,29.95,3,0,12,0.00
2013-5-31,89.9,77.6,64.7,67.9,63.4,56.8,93,65,33,30.01,29.84,7,1,14,0.00
2013-6-1,86.7,76.7,64.5,67.1,64.7,61.9,93,68,46,29.86,29.71,13,4,19,0.00
2013-6-2,79.8,72.8,64.3,67.9,62.9,54.0,86,72,45,29.76,29.63,10,3,22,0.00
2013-6-3,66.0,45.0,49.2,57.3,21.3,-99.9,90,65,53,29.94,29.76,8,-183,15,0.00
2013-6-4,65.2,55.3,46.5,45.6,39.5,26.1,88,60,25,30.10,29.94,6,2,16,0.00
2013-6-5,71.3,57.4,43.2,49.3,42.8,37.6,89,61,30,30.16,30.00,3,0,10,0.00
2013-6-6,60.1,27.9,54.7,53.6,-27.9,-99.9,95,35,57,30.01,29.80,3,-514,12,0.17
2013-6-7,63.5,40.0,59.3,62.0,4.0,-99.9,99,61,91,29.80,29.68,0,-348,7,0.20
2013-6-8,63.9,60.0,56.3,59.3,57.5,55.5,100,92,79,30.01,29.68,3,0,11,0.09
2013-6-9,74.4,62.9,52.9,57.6,54.5,50.6,99,77,45,30.12,30.01,2,0,11,0.00
2013-6-10,65.6,63.5,61.6,62.4,58.6,53.2,96,84,71,30.08,29.67,3,0,14,0.01
2013-6-11,64.5,62.8,59.0,63.7,60.8,55.1,99,93,83,29.72,29.57,5,1,16,0.34
2013-6-12,71.8,61.8,54.8,56.9,54.5,51.5,97,79,51,29.85,29.72,4,1,13,0.00
2013-6-13,63.1,59.3,56.0,59.0,56.2,54.3,98,90,74,29.74,29.43,3,0,14,0.35
2013-6-14,69.4,60.5,53.9,58.9,56.1,53.0,100,87,65,29.88,29.66,5,1,17,0.00
2013-6-15,72.7,63.2,52.2,56.4,50.6,42.8,98,67,35,29.97,29.88,4,1,16,0.00
2013-6-16,72.3,65.0,57.0,64.9,57.5,50.6,87,77,65,29.91,29.64,9,2,22,0.03
2013-6-17,79.2,67.1,58.9,64.4,59.5,51.7,96,79,39,29.85,29.75,6,1,19,0.02
2013-6-18,68.1,61.3,54.5,60.7,55.7,47.4,98,83,52,29.93,29.80,7,1,13,0.00
2013-6-19,65.8,57.3,47.3,50.9,44.6,39.0,98,66,40,30.14,29.93,5,1,14,0.00
2013-6-20,78.5,62.1,46.4,56.5,48.9,42.5,88,65,36,30.19,30.11,3,0,11,0.00
2013-6-21,81.8,68.6,53.8,61.7,55.5,48.4,91,66,38,30.19,30.09,2,0,10,0.00
2013-6-22,84.0,74.4,65.0,66.8,63.2,59.8,87,70,48,30.11,29.94,9,2,15,0.00
2013-6-23,88.2,74.9,70.3,71.7,68.2,64.9,95,81,48,30.01,29.91,10,2,26,1.00
2013-6-24,85.7,75.1,68.1,71.2,67.9,62.6,94,79,52,29.96,29.86,9,1,15,0.00
2013-6-25,82.6,74.3,64.7,70.8,66.2,62.6,95,77,60,29.89,29.71,8,1,20,0.03
2013-6-26,82.6,72.5,67.8,69.6,66.3,64.3,93,81,57,29.75,29.69,5,0,14,0.00
2013-6-27,79.0,71.0,64.3,71.2,67.0,63.3,99,88,70,29.72,29.50,3,0,11,0.34
2013-6-28,69.4,66.1,62.4,67.2,65.0,61.3,100,96,89,29.50,29.37,2,0,7,0.28
2013-6-29,70.9,65.9,62.4,67.1,64.2,61.8,100,94,78,29.60,29.40,7,0,15,0.14
2013-6-30,78.8,68.9,59.9,68.8,64.8,59.9,100,88,67,29.80,29.60,3,0,12,0.00
2013-7-1,69.8,67.9,66.0,69.5,67.1,64.5,100,97,91,29.89,29.78,1,0,9,0.47
2013-7-2,80.7,71.3,62.7,73.7,68.7,62.7,100,92,72,29.99,29.89,8,1,15,0.07
2013-7-3,84.5,76.3,69.3,72.4,70.0,66.6,96,82,56,30.06,29.97,7,2,13,0.00
2013-7-4,83.4,76.8,71.8,74.7,71.7,69.4,97,85,67,30.06,29.99,6,1,13,0.05
2013-7-5,86.7,77.5,70.9,73.9,71.2,67.9,99,82,55,30.03,29.94,8,2,19,0.22
2013-7-6,84.7,66.5,68.8,72.3,50.1,-99.9,100,75,50,30.06,29.93,1,-112,17,0.00
2013-7-7,85.5,77.2,71.5,73.3,71.2,67.9,98,83,58,29.95,29.82,3,0,12,0.11
2013-7-8,81.8,73.4,69.3,70.8,68.0,64.7,95,84,67,29.96,29.87,2,0,12,0.01
2013-7-9,82.2,73.5,67.4,72.7,70.0,67.1,100,89,63,29.94,29.82,8,1,13,0.04
2013-7-10,84.0,73.7,66.6,74.5,70.3,63.9,97,90,66,29.82,29.62,8,2,33,0.43
2013-7-11,74.7,68.6,62.7,66.9,62.6,59.0,97,82,65,29.93,29.70,3,1,33,0.00
2013-7-12,77.0,67.3,59.6,64.1,61.3,58.9,100,83,57,30.07,29.93,3,0,11,0.00
2013-7-13,77.9,70.3,63.4,70.8,66.4,62.2,98,88,75,30.15,30.05,4,0,12,0.00
2013-7-14,88.0,77.6,68.9,75.0,70.9,67.4,96,81,59,30.20,30.11,3,0,10,0.00
2013-7-15,87.2,77.8,68.9,75.0,71.5,65.2,99,82,62,30.16,30.10,2,0,10,0.00
2013-7-16,87.0,76.3,66.0,71.1,67.7,64.5,98,77,48,30.18,30.11,2,0,11,0.00
2013-7-17,92.1,78.4,66.8,75.6,71.2,66.3,99,81,47,30.14,29.97,3,0,13,0.00
2013-7-18,89.0,77.5,71.6,74.9,72.7,70.2,98,86,58,29.98,29.85,6,0,13,0.00
2013-7-19,92.5,81.0,71.5,76.0,70.3,64.1,94,72,45,29.86,29.64,8,2,20,0.01
2013-7-20,76.0,71.2,63.7,69.0,66.7,62.5,98,86,70,29.80,29.62,7,1,18,0.02
2013-7-21,77.6,69.2,60.1,65.0,60.9,54.3,100,77,51,29.92,29.80,2,0,10,0.00
2013-7-22,83.0,69.2,61.2,72.0,65.6,60.6,99,89,65,29.92,29.68,6,0,16,0.25
2013-7-23,82.0,71.8,66.3,68.7,67.0,64.2,100,86,59,29.68,29.51,2,0,11,0.30
2013-7-24,69.9,60.6,51.3,66.8,54.2,49.4,94,80,69,29.98,29.55,5,2,16,0.00
2013-7-25,73.0,52.2,48.2,55.9,34.5,-99.9,99,71,44,30.04,29.98,3,-111,13,0.00
2013-7-26,76.5,57.8,51.4,60.7,38.7,-99.9,100,68,42,30.05,29.94,3,-96,9,0.00
2013-7-27,77.7,54.0,61.6,68.6,23.1,-99.9,98,58,64,29.94,29.76,8,-252,18,0.16
2013-7-28,75.3,67.4,59.3,66.8,64.4,58.7,98,91,67,29.91,29.75,6,0,18,0.27
2013-7-29,69.6,61.8,56.7,61.0,57.1,53.0,100,86,59,30.06,29.91,4,0,12,0.00
2013-7-30,73.9,63.8,53.9,60.7,57.6,53.3,99,82,55,30.13,30.06,4,1,12,0.00
2013-7-31,76.8,48.9,55.3,63.0,19.9,-99.9,100,63,49,30.08,29.89,2,-240,9,0.00
2013-8-1,-200.0,0.0,200.0,-99.9,-99.9,-99.9,0,0,100,29.88,29.70,0,-999,0,0.00
2013-8-2,-200.0,0.0,200.0,-99.9,-99.9,-99.9,0,0,100,29.84,29.77,0,-999,0,0.00
2013-8-3,-200.0,0.0,200.0,-99.9,-99.9,-99.9,0,0,100,29.86,29.74,0,-999,0,0.00
2013-8-4,69.1,26.0,57.2,56.4,-38.2,-99.9,83,27,52,29.97,29.85,11,-592,17,0.00
2013-8-5,71.3,60.4,49.9,57.2,52.2,46.3,99,77,48,30.04,29.97,3,0,11,0.00
2013-8-6,74.2,48.9,54.2,59.9,14.8,-99.9,92,52,49,30.00,29.94,6,-261,13,0.00
2013-8-7,-200.0,0.0,200.0,-99.9,-99.9,-99.9,0,0,100,29.98,29.87,0,-999,1,0.00
2013-8-8,-200.0,0.0,200.0,-99.9,-99.9,-99.9,0,0,100,29.92,29.83,0,-999,0,0.00
2013-8-9,-200.0,0.0,200.0,-99.9,-99.9,-99.9,0,0,100,29.85,29.73,0,-999,0,0.00
2013-8-10,-200.0,0.0,200.0,-99.9,-99.9,-99.9,0,0,100,30.04,29.85,0,-999,0,0.00
2013-8-11,73.5,24.3,58.3,58.2,-43.5,-99.9,92,25,51,30.07,29.96,2,-637,9,0.00
2013-8-12,75.3,66.1,56.5,66.6,59.4,55.0,96,80,55,30.00,29.80,3,0,4,0.26
2013-8-13,73.9,48.1,56.7,65.6,18.7,-99.9,100,65,70,29.80,29.63,5,-269,6,0.55
2013-8-14,65.2,57.6,52.0,56.3,50.8,47.8,96,79,56,30.01,29.76,6,1,11,0.05
2013-8-15,72.8,58.9,49.5,55.4,51.4,48.2,97,79,47,30.09,30.01,3,0,5,0.00
2013-8-16,68.1,32.6,52.8,56.0,-14.3,-99.9,96,48,48,30.14,30.06,2,-440,5,0.00
2013-8-17,77.9,54.9,52.5,61.3,28.2,-99.9,96,59,49,30.25,30.14,4,-183,5,0.00
2013-8-18,74.2,65.5,58.1,63.7,59.2,54.9,97,82,54,30.19,30.05,4,0,5,0.00
2013-8-19,79.0,68.2,59.5,64.0,60.1,57.2,96,78,48,30.05,29.95,1,0,3,0.00
2013-8-20,81.6,54.0,58.0,65.6,26.9,-99.9,100,63,46,30.08,29.98,1,-209,4,0.00
2013-8-21,82.4,54.7,59.2,67.2,29.0,-99.9,97,65,47,30.12,29.96,4,-202,4,0.00
2013-8-22,82.2,71.8,62.0,71.0,66.1,60.3,97,83,63,29.97,29.77,6,0,13,0.11
2013-8-23,72.0,64.5,56.6,66.7,58.3,53.8,100,82,54,30.13,29.85,3,1,6,0.00
2013-8-24,74.2,30.2,52.0,56.2,-21.0,-99.9,99,44,48,30.29,30.13,1,-488,4,0.00
2013-8-25,79.2,66.4,53.2,61.6,56.3,51.8,96,73,45,30.30,30.07,6,1,9,0.00
2013-8-26,77.6,69.3,65.0,70.5,65.0,58.2,100,87,72,30.12,29.81,3,0,5,1.00
2013-8-27,80.3,71.6,64.8,72.7,68.3,-99.9,100,91,73,29.84,29.77,1,-5,2,0.00
2013-8-28,81.1,72.6,66.8,73.4,69.5,65.9,99,90,73,29.81,29.72,1,0,4,0.01
2013-8-29,81.2,69.9,63.4,71.5,67.2,62.8,100,92,67,29.93,29.81,3,0,6,0.01
2013-8-30,84.0,71.0,60.1,70.5,64.3,60.0,100,82,46,29.93,29.68,4,0,7,0.00
2013-8-31,73.0,12.3,71.8,67.9,-71.3,-99.9,86,14,84,29.77,29.62,1,-828,1,0.00
2013-9-1,-200.0,0.0,200.0,-99.9,-99.9,-99.9,0,0,100,29.76,29.65,0,-999,0,0.00
2013-9-2,-200.0,0.0,200.0,-99.9,-99.9,-99.9,0,0,100,29.70,29.56,0,-999,0,0.00
2013-9-3,66.1,52.7,59.9,58.8,31.5,-99.9,94,70,71,29.84,29.70,3,-161,9,0.00
2013-9-4,75.3,9.2,73.2,55.9,-80.8,-99.9,54,6,49,29.93,29.84,3,-876,6,0.00
2013-10-2,74.6,65.8,55.6,62.7,56.1,53.3,92,73,52,30.31,30.21,2,0,5,0.00
2013-10-3,72.3,60.5,48.8,55.7,50.8,41.0,100,74,36,30.38,30.27,2,0,4,0.00
2013-10-4,75.3,66.5,62.0,68.7,63.6,54.6,99,91,76,30.28,30.21,4,0,5,0.14
2013-10-5,71.6,64.6,61.8,68.0,63.6,61.8,100,97,85,30.32,30.25,3,0,4,0.08
2013-10-6,80.5,69.3,62.3,70.3,65.6,62.3,100,89,63,30.26,30.06,6,1,11,0.02
2013-10-7,70.9,61.9,50.4,65.4,56.2,41.3,99,82,58,30.26,29.85,6,2,15,0.93
2013-10-8,61.5,52.5,46.7,49.0,45.4,40.3,96,79,47,30.62,30.26,3,0,7,0.00
2013-10-9,66.3,51.7,40.1,47.6,42.7,34.5,99,76,31,30.69,30.57,5,0,5,0.00
2013-10-10,64.0,53.0,43.1,51.0,45.1,39.4,94,76,44,30.57,30.41,3,0,3,0.00
2013-10-11,65.6,55.4,48.3,55.5,49.6,44.5,96,82,48,30.41,30.34,2,0,5,0.01
2013-10-12,73.5,58.4,43.3,52.3,43.3,32.0,91,63,25,30.49,30.37,2,0,4,0.00
2013-10-13,64.8,56.6,53.9,53.5,51.6,50.0,89,84,65,30.55,30.49,6,1,11,0.00
2013-10-17,52.0,51.6,51.1,51.6,51.3,50.8,99,99,98,29.95,29.88,2,1,4,0.72
2013-10-18,57.3,52.0,48.0,52.3,44.5,38.5,100,77,53,30.19,29.94,6,1,14,0.03
2013-10-19,59.2,52.1,47.1,48.7,43.1,38.5,93,72,53,30.19,29.92,13,3,16,0.02
2013-10-20,50.7,46.1,40.9,42.8,40.0,36.9,93,80,66,30.27,30.01,5,1,9,0.00
2013-10-21,63.1,53.5,42.5,41.8,39.0,35.9,92,60,38,30.31,30.08,9,3,15,0.00
2013-10-22,54.4,48.1,41.9,44.6,37.4,29.4,92,68,45,30.10,29.99,5,1,11,0.01
2013-10-23,46.8,40.8,35.6,38.5,35.2,31.3,95,81,57,30.09,29.92,4,0,7,0.01
2013-10-24,46.8,39.6,33.5,36.0,31.7,26.7,93,75,47,30.26,30.05,7,2,17,0.00
2013-10-25,45.5,40.3,36.0,37.6,35.6,33.3,96,84,70,30.46,30.26,4,1,7,0.05
2013-10-26,46.4,41.8,38.8,34.9,29.7,24.3,84,63,42,30.43,30.10,17,6,20,0.01
2013-10-27,46.4,42.2,37.9,35.7,33.1,30.3,83,70,57,30.36,30.09,5,2,11,0.00
2013-10-28,48.2,43.5,40.3,38.4,33.7,31.3,76,69,54,30.55,30.34,5,2,12,0.00
2013-10-29,44.6,39.6,29.1,30.3,27.1,22.9,92,62,45,30.75,30.60,2,0,4,0.00
2013-10-30,57.0,45.7,38.3,39.5,36.5,28.7,92,72,47,30.60,30.41,1,0,2,0.01
2013-10-31,60.1,54.4,47.0,57.2,51.6,38.9,98,91,73,30.41,29.78,11,3,21,0.28
2013-11-1,64.3,58.8,51.3,58.7,47.8,38.6,93,69,40,29.92,29.52,13,6,21,0.09
2013-11-2,53.2,46.8,36.5,45.2,41.9,34.4,97,84,62,30.18,29.86,7,1,11,0.10
2013-11-3,36.5,32.5,25.7,34.4,25.3,18.2,92,75,57,30.82,30.18,5,2,11,0.00
2013-11-4,41.9,30.0,23.0,23.2,18.4,14.5,86,65,33,30.96,30.83,1,0,4,0.00
2013-11-5,51.4,46.2,35.5,38.0,32.5,22.6,72,59,50,30.85,30.66,7,2,9,0.00
2013-11-6,57.0,52.1,45.5,49.5,44.9,37.9,86,77,67,30.68,30.12,12,4,18,0.00
2013-11-7,57.0,44.1,36.8,52.3,38.7,30.8,97,81,68,30.23,30.05,11,3,16,0.01
2013-11-8,38.8,36.2,33.5,32.7,29.1,23.1,92,76,55,30.49,30.21,8,2,18,0.00
2013-11-9,44.8,40.0,32.8,30.3,27.9,25.3,78,63,47,30.51,30.11,8,2,9,0.00
2013-11-10,47.0,43.5,38.5,40.5,32.2,27.8,83,65,53,30.38,30.07,15,5,22,0.00
2013-11-11,44.2,38.4,30.3,36.0,30.3,27.2,95,73,54,30.44,30.22,8,3,19,0.00
2013-11-12,30.3,26.9,24.1,28.8,22.4,18.7,96,83,65,30.65,30.34,7,3,13,0.00
2013-11-13,35.6,27.7,19.7,22.3,19.4,15.0,92,72,54,30.73,30.45,6,2,8,0.12
2013-11-14,51.0,38.6,29.4,20.0,16.0,13.4,58,41,24,30.46,30.35,9,3,12,0.00
2013-11-15,55.3,44.9,36.3,24.5,20.4,15.8,50,38,26,30.44,30.34,5,1,6,0.00
2013-11-16,57.8,48.8,36.3,40.6,34.0,21.9,78,57,40,30.54,30.40,6,2,11,0.00
2013-11-17,57.8,53.0,47.6,55.2,49.7,40.5,94,89,73,30.40,29.72,12,6,24,0.09
2013-11-18,57.6,48.8,35.5,55.6,36.4,23.6,95,64,40,30.13,29.68,14,6,24,0.01
2013-11-19,35.8,33.1,29.4,31.0,26.5,22.5,94,77,58,30.72,30.13,12,4,20,0.00
2013-11-20,39.3,29.9,20.8,24.2,17.3,12.4,86,61,38,30.90,30.71,3,0,4,0.00
2013-11-21,42.8,36.1,29.0,36.8,23.5,10.5,92,61,43,30.84,30.59,11,3,15,0.00
2013-11-22,46.7,41.8,33.8,46.7,40.8,28.9,100,96,82,30.59,30.23,11,1,19,0.00
2013-11-23,35.9,28.0,17.8,29.0,21.6,9.7,87,77,55,30.42,30.22,13,2,18,0.00
2013-11-24,19.4,17.1,14.9,17.1,12.7,8.5,93,83,69,30.70,30.38,11,3,24,0.00
2013-11-25,30.7,24.2,16.2,18.2,13.2,10.4,84,65,45,30.73,30.48,10,2,14,0.00
2013-11-26,35.5,30.8,27.2,35.2,27.5,11.8,99,89,48,30.51,30.07,11,2,12,0.00
2013-11-27,34.9,30.3,21.4,34.6,29.0,18.1,100,95,80,30.12,29.83,8,3,18,0.00
2013-11-28,25.1,21.4,18.6,19.4,15.4,12.2,91,78,60,30.74,30.13,12,2,20,0.00
2013-11-29,26.6,19.9,9.5,20.5,14.9,6.0,94,82,55,31.07,30.74,4,0,10,0.00
2013-11-30,30.1,21.3,7.0,21.1,12.3,4.2,91,70,46,31.07,30.58,9,2,16,0.00
2013-12-1,36.6,32.0,28.4,32.3,25.5,20.8,97,78,65,30.58,30.28,5,1,12,0.00
2013-12-2,35.2,33.4,33.1,32.8,32.3,32.1,97,96,91,30.28,30.21,1,0,2,0.00
2013-12-3,38.5,32.3,26.0,32.3,29.1,24.3,96,88,73,30.30,30.21,2,0,3,0.00
2013-12-4,48.0,39.8,27.8,42.9,36.4,26.0,97,88,75,30.36,30.26,6,1,9,0.00
2013-12-5,54.4,50.0,42.1,51.8,47.3,40.8,97,91,85,30.28,30.08,9,4,13,0.00
2013-12-6,42.1,33.4,28.2,41.3,30.2,26.1,98,88,75,30.52,30.21,4,1,6,0.02
2013-12-7,29.5,27.1,23.6,26.9,19.0,12.0,94,72,56,30.84,30.49,5,2,14,0.00
2013-12-8,26.3,23.4,18.9,21.7,15.3,12.1,90,71,61,30.90,30.58,4,1,7,0.00
2013-12-9,37.8,32.2,24.1,35.7,28.7,21.4,95,87,68,30.58,30.18,11,4,15,0.01
2013-12-10,32.9,25.1,17.5,24.2,19.0,10.9,89,78,64,30.36,30.17,8,2,14,0.00
2013-12-11,24.8,21.0,15.6,21.9,17.4,9.1,94,86,69,30.56,30.36,7,2,12,0.00
2013-12-12,19.9,15.9,9.9,11.7,7.9,3.7,90,71,52,30.63,30.37,10,2,13,0.00
2013-12-13,24.2,18.2,14.1,20.0,14.2,9.0,92,84,65,30.69,30.34,5,1,11,0.00
2013-12-14,23.0,16.5,11.7,20.8,13.3,8.1,92,87,80,30.76,30.10,6,2,9,0.00
2013-12-15,26.0,23.5,19.9,24.4,21.2,15.0,96,91,77,30.13,29.91,7,2,15,0.00
2013-12-16,21.3,14.7,3.9,14.4,9.4,0.6,88,80,65,30.51,30.13,6,2,12,0.00
2013-12-17,24.1,17.3,2.8,21.3,14.4,-0.4,91,88,86,30.49,30.27,8,1,15,0.00
2013-12-18,29.0,25.7,20.6,26.4,23.0,18.0,96,90,74,30.39,30.25,4,1,8,0.03
2013-12-19,40.5,32.2,24.8,30.3,23.5,17.9,80,70,57,30.38,30.25,8,1,11,0.21
2013-12-20,48.0,43.2,37.8,45.5,36.6,30.4,95,78,58,30.32,30.10,9,4,14,0.14
2013-12-21,55.6,48.8,36.0,52.0,47.3,35.8,100,95,86,30.12,30.03,11,3,18,0.40
2013-12-22,62.1,46.5,33.2,57.5,44.1,33.2,100,92,73,30.24,29.80,15,3,22,0.06
2013-12-23,41.6,36.7,27.8,40.3,33.5,20.9,98,88,69,30.51,30.22,6,1,12,0.03
2013-12-24,27.6,21.3,12.4,24.8,17.3,6.2,91,84,74,30.75,30.45,6,1,11,0.01
2013-12-25,22.7,14.6,6.0,13.1,8.1,2.7,87,76,65,30.85,30.60,5,1,9,0.00
2013-12-26,31.6,25.1,20.8,25.8,20.3,12.7,93,82,65,30.59,30.39,6,2,11,0.00
2013-12-27,31.5,26.9,19.9,25.8,21.9,15.4,88,81,71,30.59,30.46,4,1,5,0.00
2013-12-28,46.5,38.0,28.7,32.9,28.6,23.9,82,69,58,30.46,30.26,7,1,10,0.00
2013-12-29,42.6,37.4,32.7,37.0,31.3,26.1,99,80,52,30.26,29.91,7,1,9,0.34
2013-12-30,36.5,19.8,11.6,35.0,15.7,7.2,98,84,74,30.51,29.98,8,2,13,0.05
2013-12-31,25.1,17.2,13.6,17.9,10.2,5.2,89,74,54,30.57,30.29,11,3,20,0.00
2014-1-1,19.9,16.9,14.4,11.9,6.9,4.5,81,65,56,30.70,30.56,3,1,8,0.00
2014-1-2,15.6,10.1,0.9,12.2,6.7,-3.1,87,86,83,30.49,30.20,3,1,8,0.00